Time;durP1;ratioP1;P1;durP2;ratioP2;P2;SDS_P1;SDS_P2;PMS_P1;PMS_P2;Temp;Humidity;BMP_temperature;BMP_pressure;BME280_temperature;BME280_humidity;BME280_pressure;Samples;Min_cycle;Max_cycle;Signal;HPM_P1;HPM_P2
2022/11/06 00:03:42;;;;;;;55.83;37.08;;;;;;;9.54;75.32;97236.34;10377869;28;20032;-56
2022/11/06 00:08:41;;;;;;;54.97;38.83;;;;;;;9.52;75.86;97257.94;10377515;28;20493;-57
2022/11/06 00:13:41;;;;;;;60.78;37.67;;;;;;;9.43;76.53;97230.34;10377584;28;20098;-56
2022/11/06 00:18:41;;;;;;;61.67;37.38;;;;;;;9.50;75.90;97257.09;10377420;28;20504;-56
2022/11/06 00:23:40;;;;;;;57.42;38.63;;;;;;;9.57;75.58;97243.25;10376782;28;20072;-56
2022/11/06 00:28:40;;;;;;;59.10;38.13;;;;;;;9.64;75.08;97239.75;10377049;28;20056;-56
2022/11/06 00:33:40;;;;;;;68.07;43.35;;;;;;;9.59;75.68;97233.72;10376350;28;20077;-56
2022/11/06 00:38:39;;;;;;;64.85;41.97;;;;;;;9.59;75.41;97236.31;10376959;28;20079;-56
2022/11/06 00:43:38;;;;;;;77.88;47.80;;;;;;;9.55;75.57;97232.03;10376492;28;20029;-56
2022/11/06 00:48:38;;;;;;;;;;;;;;;9.34;76.54;97225.22;10376481;28;20491;-56
2022/11/06 00:53:37;;;;;;;62.53;41.70;;;;;;;9.17;76.77;97233.03;10376273;28;19973;-56
2022/11/06 00:58:36;;;;;;;;;;;;;;;9.15;76.34;97242.53;10375139;28;20076;-57
2022/11/06 01:03:37;;;;;;;59.67;40.42;;;;;;;9.18;76.86;97224.38;10375750;28;20615;-56
2022/11/06 01:08:36;;;;;;;55.47;38.15;;;;;;;9.24;76.38;97228.69;10375201;28;20076;-57
2022/11/06 01:13:35;;;;;;;49.92;32.30;;;;;;;9.15;77.26;97240.78;10375075;28;20076;-56
2022/11/06 01:18:36;;;;;;;52.88;34.45;;;;;;;9.20;77.61;97240.78;10375084;28;20076;-56
2022/11/06 01:23:35;;;;;;;56.63;34.50;;;;;;;9.11;77.52;97258.94;10375050;28;20064;-57
2022/11/06 01:28:34;;;;;;;52.80;35.92;;;;;;;8.86;78.74;97238.31;10374640;28;20033;-56
2022/11/06 01:33:33;;;;;;;53.20;35.22;;;;;;;8.96;78.45;97253.81;10374892;28;20496;-56
2022/11/06 01:38:32;;;;;;;51.15;33.65;;;;;;;8.99;78.41;97243.44;10374167;28;20076;-56
2022/11/06 01:43:46;;;;;;;49.88;34.20;;;;;;;9.02;78.26;97239.13;10374314;28;20355;-57
2022/11/06 01:48:51;;;;;;;54.15;34.38;;;;;;;9.07;78.19;97260.69;10373702;28;20081;-57
2022/11/06 01:53:51;;;;;;;51.38;34.22;;;;;;;9.08;78.10;97248.59;10374529;28;20088;-56
2022/11/06 01:58:53;;;;;;;45.33;30.40;;;;;;;9.10;78.22;97254.63;10373202;28;20076;-56
2022/11/06 02:04:00;;;;;;;53.00;33.45;;;;;;;9.10;77.96;97257.22;10373840;28;20083;-56
2022/11/06 02:09:00;;;;;;;48.95;32.67;;;;;;;9.06;78.09;97268.44;10372884;28;20075;-56
2022/11/06 02:14:11;;;;;;;49.63;30.88;;;;;;;9.03;78.48;97273.63;10373554;28;20096;-56
2022/11/06 02:19:19;;;;;;;48.63;32.55;;;;;;;9.05;78.17;97264.13;10372736;28;20072;-56
2022/11/06 02:24:36;;;;;;;53.70;33.60;;;;;;;9.08;77.90;97271.88;10373114;28;20064;-57
2022/11/06 02:30:11;;;;;;;58.00;34.20;;;;;;;9.05;78.70;97266.72;10372790;28;20091;-56
2022/11/06 02:35:20;;;;;;;52.25;33.35;;;;;;;9.01;78.94;97283.13;10372959;28;20080;-56
2022/11/06 02:40:23;;;;;;;54.72;33.83;;;;;;;9.01;79.19;97303.81;10372233;28;20073;-56
2022/11/06 02:45:25;;;;;;;50.22;33.95;;;;;;;8.77;80.21;97307.31;10372203;28;20060;-56
2022/11/06 02:50:29;;;;;;;50.25;33.55;;;;;;;8.70;79.54;97296.97;10372380;28;20081;-56
2022/11/06 02:55:39;;;;;;;48.67;34.28;;;;;;;8.80;79.46;97321.09;10372355;28;20076;-56
2022/11/06 03:00:39;;;;;;;;;;;;;;;8.83;79.45;97318.53;10372618;28;20170;-56
2022/11/06 03:05:41;;;;;;;;;;;;;;;8.81;79.71;97328.00;10372788;28;19972;-56
2022/11/06 03:11:17;;;;;;;49.33;32.40;;;;;;;8.82;79.43;97324.56;10371872;28;19967;-56
2022/11/06 03:16:27;;;;;;;53.25;34.60;;;;;;;8.79;79.64;97324.56;10371891;28;20064;-56
2022/11/06 03:21:42;;;;;;;53.58;35.63;;;;;;;8.78;79.75;97343.53;10377360;28;20068;-56
2022/11/06 03:26:48;;;;;;;53.70;33.03;;;;;;;8.78;79.62;97340.06;10379326;28;20057;-56
2022/11/06 03:31:56;;;;;;;72.65;46.95;;;;;;;8.52;81.33;97343.53;10379334;28;20057;-56
2022/11/06 03:37:01;;;;;;;60.47;40.78;;;;;;;8.61;81.06;97350.44;10379270;28;20081;-56
2022/11/06 03:42:13;;;;;;;65.00;39.83;;;;;;;8.50;80.92;97355.59;10379127;28;20068;-56
2022/11/06 03:47:20;;;;;;;64.45;40.55;;;;;;;8.46;80.91;97359.06;10379072;28;20064;-57
2022/11/06 03:52:27;;;;;;;60.45;40.80;;;;;;;8.36;81.16;97376.25;10378241;28;20076;-57
2022/11/06 03:57:35;;;;;;;61.03;41.83;;;;;;;8.33;80.78;97349.56;10378401;28;20464;-57
2022/11/06 04:02:38;;;;;;;62.75;40.75;;;;;;;8.26;80.98;97359.00;10377707;28;20535;-57
2022/11/06 04:13:56;;;;;;;53.03;34.83;;;;;;;8.20;81.38;97353.81;10377474;28;20075;-57
2022/11/06 04:18:25;;;;;;;62.97;39.40;;;;;;;8.01;82.45;97378.75;10377701;28;20723;-57
2022/11/06 04:23:33;;;;;;;54.42;35.63;;;;;;;7.97;82.62;97357.22;10377021;28;20469;-55
2022/11/06 04:29:01;;;;;;;56.70;36.55;;;;;;;7.96;82.38;97371.00;10377125;28;20064;-56
2022/11/06 04:34:13;;;;;;;60.28;38.33;;;;;;;7.98;82.60;97371.00;10376581;28;20527;-56
2022/11/06 04:39:17;;;;;;;59.67;40.40;;;;;;;7.96;83.22;97378.75;10377036;28;20069;-56
2022/11/06 04:44:38;;;;;;;60.33;39.97;;;;;;;7.99;83.42;97373.59;10377182;28;20065;-56
2022/11/06 04:49:41;;;;;;;60.33;38.35;;;;;;;8.01;83.16;97374.47;10376026;28;20084;-57
2022/11/06 04:54:40;;;;;;;63.53;38.67;;;;;;;7.93;83.91;97376.16;10376102;28;20084;-57
2022/11/06 04:59:39;;;;;;;;;;;;;;;7.88;84.02;97381.31;10376670;28;20064;-56
2022/11/06 05:04:38;;;;;;;53.88;34.95;;;;;;;7.93;83.82;97385.63;10376122;28;19913;-56
2022/11/06 05:09:37;;;;;;;58.58;37.58;;;;;;;7.93;83.12;97394.25;10375509;28;20584;-56
2022/11/06 05:14:36;;;;;;;58.22;38.42;;;;;;;7.95;83.67;97391.69;10375530;28;20411;-56
2022/11/06 05:19:35;;;;;;;62.92;38.65;;;;;;;7.88;84.33;97401.13;10375483;28;20031;-56
2022/11/06 05:24:34;;;;;;;64.85;39.03;;;;;;;7.88;84.40;97412.31;10375169;28;20017;-56
2022/11/06 05:29:33;;;;;;;77.15;40.38;;;;;;;7.91;83.92;97423.50;10374473;28;20031;-56
2022/11/06 05:34:32;;;;;;;67.00;41.47;;;;;;;7.92;84.43;97420.06;10374841;28;20405;-56
2022/11/06 05:39:31;;;;;;;62.85;40.20;;;;;;;7.98;83.92;97426.13;10374830;28;20035;-56
2022/11/06 05:44:30;;;;;;;67.53;39.67;;;;;;;8.05;84.01;97422.69;10373647;28;20033;-56
2022/11/06 05:49:29;;;;;;;67.32;42.08;;;;;;;8.16;83.83;97445.16;10373889;28;20045;-56
2022/11/06 05:54:27;;;;;;;68.00;43.03;;;;;;;8.13;84.25;97440.84;10373926;28;20044;-56
2022/11/06 05:59:26;;;;;;;70.35;42.05;;;;;;;8.26;84.18;97452.06;10374015;28;20041;-56
2022/11/06 06:04:25;;;;;;;68.43;42.85;;;;;;;8.39;83.86;97448.69;10373746;28;20052;-56
2022/11/06 06:09:24;;;;;;;69.32;43.65;;;;;;;8.46;84.06;97455.59;10373272;28;20385;-57
2022/11/06 06:14:23;;;;;;;79.28;50.53;;;;;;;8.46;83.28;97476.28;10373267;28;20484;-56
2022/11/06 06:19:22;;;;;;;72.30;47.70;;;;;;;8.36;84.49;97482.25;10373402;28;20411;-57
2022/11/06 06:24:21;;;;;;;72.25;46.00;;;;;;;8.24;83.73;97477.91;10372833;28;20021;-56
2022/11/06 06:29:20;;;;;;;67.63;44.90;;;;;;;8.22;83.00;97489.09;10372847;28;20864;-56
2022/11/06 06:34:19;;;;;;;68.60;44.85;;;;;;;8.28;83.02;97491.72;10373347;28;20025;-56
2022/11/06 06:39:19;;;;;;;69.13;44.58;;;;;;;8.42;83.13;97495.22;10372756;28;20079;-56
2022/11/06 06:44:18;;;;;;;71.80;44.58;;;;;;;8.57;82.57;97507.31;10372185;28;20079;-57
2022/11/06 06:49:17;;;;;;;76.10;48.08;;;;;;;8.61;82.38;97510.78;10372541;28;20063;-56
2022/11/06 06:54:16;;;;;;;69.75;45.83;;;;;;;8.59;82.34;97497.84;10376743;28;20032;-57
2022/11/06 06:59:15;;;;;;;74.50;49.88;;;;;;;8.75;82.66;97514.28;10380594;28;20526;-56
2022/11/06 07:04:14;;;;;;;79.40;48.45;;;;;;;9.02;82.41;97507.41;10380770;28;20033;-56
2022/11/06 07:09:13;;;;;;;72.88;46.65;;;;;;;9.32;82.06;97512.66;10380660;28;20059;-56
2022/11/06 07:14:12;;;;;;;74.60;50.17;;;;;;;9.54;81.75;97504.88;10379638;28;20526;-56
2022/11/06 07:19:11;;;;;;;81.55;49.78;;;;;;;9.82;80.95;97520.41;10380035;28;20068;-56
2022/11/06 07:24:10;;;;;;;75.43;48.28;;;;;;;10.03;80.28;97515.16;10379791;28;20033;-56
2022/11/06 07:29:08;;;;;;;72.00;46.85;;;;;;;10.32;79.98;97519.38;10379506;28;20044;-56
2022/11/06 07:34:08;;;;;;;73.57;47.47;;;;;;;10.56;79.67;97519.25;10378771;28;20044;-56
2022/11/06 07:39:07;;;;;;;68.15;45.25;;;;;;;10.77;78.62;97526.06;10380130;28;20462;-56
2022/11/06 07:44:06;;;;;;;71.20;46.92;;;;;;;10.89;78.12;97529.50;10379068;28;20504;-56
2022/11/06 07:49:05;;;;;;;74.25;47.33;;;;;;;11.06;77.06;97524.19;10378489;28;20056;-56
2022/11/06 07:54:04;;;;;;;71.10;48.35;;;;;;;11.24;76.57;97529.28;10378396;28;20025;-56
2022/11/06 07:59:04;;;;;;;71.43;47.33;;;;;;;11.27;75.24;97524.06;10378305;28;20029;-56
2022/11/06 08:04:03;;;;;;;73.47;52.38;;;;;;;11.38;75.06;97530.03;10377378;28;20068;-56
2022/11/06 08:09:06;;;;;;;70.30;49.58;;;;;;;11.33;74.70;97544.78;10378218;28;20040;-56
2022/11/06 08:14:05;;;;;;;73.10;51.80;;;;;;;11.46;74.82;97528.25;10377623;28;20072;-56
2022/11/06 08:19:04;;;;;;;76.60;53.70;;;;;;;11.58;74.78;97544.63;10377505;28;20033;-56
2022/11/06 08:24:04;;;;;;;69.50;50.42;;;;;;;11.65;74.37;97546.28;10377612;28;20039;-56
2022/11/06 08:29:03;;;;;;;80.20;57.63;;;;;;;11.81;74.34;97558.28;10377151;28;20471;-56
2022/11/06 08:34:02;;;;;;;85.40;59.65;;;;;;;11.92;73.35;97554.69;10376930;28;20067;-56
2022/11/06 08:39:01;;;;;;;79.68;54.47;;;;;;;11.96;73.19;97556.41;10377370;28;20076;-56
2022/11/06 08:44:00;;;;;;;83.00;53.85;;;;;;;12.02;73.28;97557.22;10376721;28;20263;-56
2022/11/06 08:48:59;;;;;;;76.93;49.83;;;;;;;11.78;76.18;97583.41;10376512;28;20730;-56
2022/11/06 08:53:57;;;;;;;78.50;48.75;;;;;;;11.60;78.46;97574.06;10376052;28;20459;-56
2022/11/06 08:58:56;;;;;;;79.65;52.65;;;;;;;11.68;79.14;97593.03;10374705;28;20033;-56
2022/11/06 09:03:56;;;;;;;69.95;50.15;;;;;;;11.58;80.06;97588.78;10376189;28;20082;-56
2022/11/06 09:08:55;;;;;;;78.70;52.95;;;;;;;11.55;81.36;97594.88;10375950;28;20554;-57
2022/11/06 09:13:54;;;;;;;;;;;;;;;11.56;81.36;97582.75;10374726;28;20076;-56
2022/11/06 09:18:54;;;;;;;82.13;54.97;;;;;;;11.54;82.17;97585.34;10374395;28;19913;-56
2022/11/06 09:23:53;;;;;;;83.20;57.35;;;;;;;11.55;82.61;97568.91;10375319;28;20067;-56
2022/11/06 09:28:52;;;;;;;84.88;60.28;;;;;;;11.70;83.02;97580.88;10374780;28;20037;-56
2022/11/06 09:33:51;;;;;;;95.70;62.08;;;;;;;11.94;84.61;97584.16;10374678;28;20043;-56
2022/11/06 09:38:50;;;;;;;87.53;60.22;;;;;;;12.24;85.00;97578.63;10375010;28;20025;-57
2022/11/06 09:43:58;;;;;;;88.22;59.35;;;;;;;12.45;83.95;97581.94;10374259;28;20025;-56
2022/11/06 09:49:26;;;;;;;80.72;54.67;;;;;;;12.63;84.01;97584.31;10374562;28;20076;-57
2022/11/06 09:54:33;;;;;;;84.30;56.50;;;;;;;12.61;83.57;97567.00;10371010;28;20073;-56
2022/11/06 09:59:35;;;;;;;85.05;60.95;;;;;;;12.69;83.76;97589.44;10373821;28;20068;-56
2022/11/06 10:04:50;;;;;;;106.65;78.88;;;;;;;12.57;82.93;97594.78;10373153;28;20079;-56
2022/11/06 10:09:49;;;;;;;110.80;78.80;;;;;;;12.34;82.85;97592.44;10373755;28;20065;-56
2022/11/06 10:15:23;;;;;;;119.72;86.10;;;;;;;12.26;84.08;97623.72;10372927;28;20021;-57
2022/11/06 10:20:35;;;;;;;128.85;93.15;;;;;;;12.13;85.03;97616.03;10368926;28;20499;-57
2022/11/06 10:25:45;;;;;;;120.25;86.82;;;;;;;11.84;86.43;97599.84;10373617;28;20060;-56
2022/11/06 10:30:44;;;;;;;128.68;93.40;;;;;;;11.58;87.81;97607.84;10372799;28;20084;-57
2022/11/06 10:35:53;;;;;;;127.35;91.82;;;;;;;11.50;88.71;97613.97;10372564;28;20116;-57
2022/11/06 10:40:54;;;;;;;134.15;96.38;;;;;;;11.42;89.82;97621.81;10371276;28;20126;-57
2022/11/06 10:46:18;;;;;;;168.27;121.18;;;;;;;11.31;91.28;97629.66;10371513;28;20134;-57
2022/11/06 10:51:31;;;;;;;149.57;108.18;;;;;;;11.17;91.97;97632.34;10372424;28;20087;-57
2022/11/06 10:57:05;;;;;;;169.93;119.18;;;;;;;11.19;92.31;97629.75;10371937;28;20072;-57
2022/11/06 11:02:24;;;;;;;166.93;110.95;;;;;;;11.17;92.51;97649.66;10372492;28;20063;-57
2022/11/06 11:07:28;;;;;;;170.40;117.73;;;;;;;11.18;92.77;97656.59;10372367;28;20068;-57
2022/11/06 11:12:29;;;;;;;135.07;94.22;;;;;;;11.36;92.60;97647.81;10372076;28;20056;-56
2022/11/06 11:17:28;;;;;;;113.72;81.65;;;;;;;11.52;92.51;97638.19;10371455;28;20102;-56
2022/11/06 11:22:27;;;;;;;123.65;83.55;;;;;;;11.63;92.74;97632.06;10371819;28;20026;-57
2022/11/06 11:27:28;;;;;;;126.70;87.63;;;;;;;11.69;92.29;97615.56;10371615;28;20087;-57
2022/11/06 11:32:29;;;;;;;142.32;101.03;;;;;;;11.73;92.12;97617.25;10371884;28;20068;-57
2022/11/06 11:37:32;;;;;;;131.38;96.43;;;;;;;11.79;92.54;97619.81;10371033;28;20511;-57
2022/11/06 11:42:31;;;;;;;129.63;88.72;;;;;;;12.02;92.55;97614.41;10376942;28;20087;-57
2022/11/06 11:47:30;;;;;;;123.90;85.05;;;;;;;12.04;92.39;97606.59;10378282;28;20079;-57
2022/11/06 11:52:29;;;;;;;189.98;110.63;;;;;;;12.21;92.56;97615.09;10378205;28;20037;-57
2022/11/06 11:57:29;;;;;;;117.40;81.20;;;;;;;12.39;92.60;97610.63;10378154;28;20029;-57
2022/11/06 12:02:42;;;;;;;108.57;74.28;;;;;;;12.48;91.95;97603.56;10378061;28;20072;-57
2022/11/06 12:07:53;;;;;;;105.53;71.97;;;;;;;12.43;91.26;97594.09;10379222;28;20053;-58
2022/11/06 12:12:54;;;;;;;109.75;75.00;;;;;;;12.53;91.94;97603.50;10378122;28;20060;-57
2022/11/06 12:18:04;;;;;;;102.45;72.13;;;;;;;12.66;91.56;97597.28;10377409;28;20073;-55
2022/11/06 12:23:12;;;;;;;86.60;59.10;;;;;;;12.85;91.53;97604.88;10377684;28;20071;-57
2022/11/06 12:28:18;;;;;;;80.93;53.45;;;;;;;12.91;91.85;97617.84;10377016;28;20063;-57
2022/11/06 12:33:20;;;;;;;89.28;55.60;;;;;;;12.83;91.16;97612.69;10377158;28;20057;-57
2022/11/06 12:38:34;;;;;;;78.35;50.47;;;;;;;12.91;90.76;97612.63;10376067;28;20072;-57
2022/11/06 12:43:39;;;;;;;77.40;52.47;;;;;;;12.95;91.03;97609.09;10376416;28;20500;-57
2022/11/06 12:49:11;;;;;;;96.78;69.47;;;;;;;13.07;90.68;97589.81;10376618;28;20088;-58
2022/11/06 12:54:15;;;;;;;73.95;49.85;;;;;;;13.20;90.79;97594.00;10367409;28;20076;-55
2022/11/06 12:59:41;;;;;;;74.53;48.97;;;;;;;13.17;89.45;97601.88;10376534;28;20079;-57
2022/11/06 13:05:04;;;;;;;79.07;52.47;;;;;;;13.21;90.01;97606.16;10376057;28;20072;-56
2022/11/06 13:10:48;;;;;;;71.45;50.70;;;;;;;13.27;90.23;97611.25;10375608;28;20071;-55
2022/11/06 13:15:47;;;;;;;82.25;53.00;;;;;;;13.26;89.82;97616.53;10375774;28;20077;-55
2022/11/06 13:21:34;;;;;;;79.25;52.72;;;;;;;13.28;89.92;97614.72;10375522;28;20403;-56
2022/11/06 13:26:48;;;;;;;83.03;55.55;;;;;;;13.26;89.89;97619.97;10358079;28;20087;-56
2022/11/06 13:31:55;;;;;;;77.80;55.05;;;;;;;13.31;89.58;97625.13;10374939;28;20478;-56
2022/11/06 13:36:55;;;;;;;85.40;56.65;;;;;;;13.30;89.22;97626.00;10374892;28;20068;-56
2022/11/06 13:41:55;;;;;;;70.93;50.30;;;;;;;13.27;89.17;97628.66;10374706;28;20064;-57
2022/11/06 13:47:11;;;;;;;85.05;61.35;;;;;;;13.13;89.16;97634.91;10374271;28;20508;-56
2022/11/06 13:52:28;;;;;;;88.28;61.78;;;;;;;13.10;89.12;97640.16;10373328;28;20080;-57
2022/11/06 13:57:58;;;;;;;178.05;142.13;;;;;;;13.03;89.11;97635.91;10373555;28;20087;-57
2022/11/06 14:03:34;;;;;;;109.22;81.05;;;;;;;12.75;90.07;97629.31;10369062;28;20079;-57
2022/11/06 14:08:47;;;;;;;103.00;72.80;;;;;;;12.46;90.79;97640.91;10371409;28;20095;-56
2022/11/06 14:14:04;;;;;;;102.25;74.25;;;;;;;12.35;91.42;97650.56;10371990;28;20076;-56
2022/11/06 14:19:22;;;;;;;105.25;74.57;;;;;;;12.34;91.74;97647.09;10371030;28;20080;-56
2022/11/06 14:24:38;;;;;;;102.68;66.63;;;;;;;12.21;92.44;97646.31;10371165;28;20072;-56
2022/11/06 14:29:36;;;;;;;93.53;61.45;;;;;;;12.12;92.65;97651.59;10370834;28;20069;-57
2022/11/06 14:34:40;;;;;;;86.28;60.10;;;;;;;12.13;92.65;97653.31;10371338;28;20033;-56
2022/11/06 14:39:54;;;;;;;101.55;67.57;;;;;;;12.11;92.52;97660.31;10370373;28;20072;-57
2022/11/06 14:44:58;;;;;;;92.97;61.47;;;;;;;12.09;92.77;97651.66;10368853;28;20107;-56
2022/11/06 14:50:02;;;;;;;96.15;62.58;;;;;;;12.15;92.67;97658.53;10370507;28;20061;-56
2022/11/06 14:55:04;;;;;;;98.78;67.45;;;;;;;12.15;92.51;97666.31;10370489;28;20083;-56
2022/11/06 15:00:04;;;;;;;98.90;67.00;;;;;;;12.18;92.89;97666.28;10370361;28;20532;-57
2022/11/06 15:05:07;;;;;;;118.43;79.18;;;;;;;12.20;93.24;97655.00;10370668;28;20076;-57
2022/11/06 15:10:43;;;;;;;108.20;73.25;;;;;;;12.25;92.78;97670.56;10370279;28;20516;-57
2022/11/06 15:15:44;;;;;;;110.32;72.43;;;;;;;12.24;92.95;97674.91;10373139;28;20076;-56
2022/11/06 15:20:48;;;;;;;115.00;77.80;;;;;;;12.26;92.96;97680.97;10378854;28;20134;-56
2022/11/06 15:26:00;;;;;;;106.03;74.25;;;;;;;12.31;92.87;97691.38;10377735;28;20053;-57
2022/11/06 15:31:10;;;;;;;104.95;72.40;;;;;;;12.33;92.93;97687.00;10377857;28;20475;-57
2022/11/06 15:36:13;;;;;;;101.10;67.70;;;;;;;12.37;92.79;97688.72;10377729;28;20060;-57
2022/11/06 15:41:17;;;;;;;109.93;72.82;;;;;;;12.35;92.90;97693.06;10378148;28;20519;-57
2022/11/06 15:46:36;;;;;;;110.10;73.38;;;;;;;12.30;92.91;97693.09;10376784;28;20437;-57
2022/11/06 15:51:39;;;;;;;108.17;74.27;;;;;;;12.26;92.80;97712.19;10374628;28;20551;-57
2022/11/06 15:56:38;;;;;;;107.82;76.40;;;;;;;12.30;92.65;97713.91;10376650;28;20771;-56
2022/11/06 16:01:38;;;;;;;119.00;85.07;;;;;;;12.35;92.83;97720.84;10376484;28;20566;-56
2022/11/06 16:06:37;;;;;;;127.18;88.05;;;;;;;12.34;93.11;97724.28;10376017;28;20069;-57
2022/11/06 16:11:36;;;;;;;119.53;84.97;;;;;;;12.35;93.04;97728.63;10376262;28;20072;-57
2022/11/06 16:16:46;;;;;;;115.65;81.95;;;;;;;12.24;93.56;97737.34;10375969;28;20056;-57
2022/11/06 16:22:08;;;;;;;131.93;93.20;;;;;;;12.15;93.70;97742.63;10376137;28;20064;-56
2022/11/06 16:27:08;;;;;;;201.50;147.20;;;;;;;12.14;93.79;97745.25;10374809;28;20071;-57
2022/11/06 16:32:24;;;;;;;155.85;112.72;;;;;;;12.15;93.82;97747.81;10375384;28;20068;-57
2022/11/06 16:37:26;;;;;;;169.35;114.30;;;;;;;12.10;93.57;97760.84;10374460;28;20124;-57
2022/11/06 16:42:29;;;;;;;173.02;114.85;;;;;;;12.00;93.48;97746.19;10375919;28;20075;-57
2022/11/06 16:47:28;;;;;;;163.35;116.03;;;;;;;12.12;93.96;97768.66;10374957;28;20060;-57
2022/11/06 16:52:37;;;;;;;176.93;119.38;;;;;;;12.16;93.91;97769.50;10374228;28;20084;-57
2022/11/06 16:57:45;;;;;;;173.23;122.30;;;;;;;12.20;93.71;97768.59;10373954;28;20080;-56
2022/11/06 17:02:59;;;;;;;162.80;116.10;;;;;;;12.25;93.50;97767.72;10372888;28;20598;-58
2022/11/06 17:08:16;;;;;;;162.63;115.35;;;;;;;12.29;93.54;97769.41;10373747;28;20067;-57
2022/11/06 17:13:15;;;;;;;159.77;110.55;;;;;;;12.30;93.97;97775.50;10374008;28;20071;-56
2022/11/06 17:18:18;;;;;;;150.35;109.05;;;;;;;12.19;93.41;97764.28;10372946;28;20040;-56
2022/11/06 17:23:17;;;;;;;150.35;109.10;;;;;;;12.29;93.56;97782.44;10373914;28;20068;-57
2022/11/06 17:28:17;;;;;;;151.25;109.40;;;;;;;12.29;93.67;97787.63;10373082;28;20063;-56
2022/11/06 17:33:16;;;;;;;158.88;111.60;;;;;;;12.25;93.94;97791.13;10370511;28;20061;-56
2022/11/06 17:38:17;;;;;;;170.80;117.60;;;;;;;12.18;94.00;97789.44;10371369;28;20076;-56
2022/11/06 17:43:16;;;;;;;175.65;121.07;;;;;;;12.14;93.89;97795.53;10373519;28;20073;-56
2022/11/06 17:48:16;;;;;;;170.82;120.78;;;;;;;12.15;94.38;97797.25;10371721;28;20045;-57
2022/11/06 17:53:15;;;;;;;174.27;123.72;;;;;;;12.15;94.59;97792.03;10372172;28;20083;-57
2022/11/06 17:58:14;;;;;;;174.77;123.60;;;;;;;12.20;94.69;97805.03;10372662;28;20020;-58
2022/11/06 18:03:20;;;;;;;166.48;119.68;;;;;;;12.24;94.64;97801.53;10368376;28;20025;-57
2022/11/06 18:08:19;;;;;;;168.40;120.35;;;;;;;12.26;94.32;97795.44;10371299;28;20060;-56
2022/11/06 18:13:18;;;;;;;165.02;118.00;;;;;;;12.25;94.34;97798.94;10372027;28;20392;-57
2022/11/06 18:18:18;;;;;;;160.43;117.75;;;;;;;12.13;94.32;97783.38;10372053;28;20024;-57
2022/11/06 18:23:17;;;;;;;153.82;115.05;;;;;;;12.21;94.68;97807.63;10371168;28;20064;-57
2022/11/06 18:28:16;;;;;;;153.23;105.53;;;;;;;12.21;94.69;97810.22;10371804;28;20020;-58
2022/11/06 18:33:15;;;;;;;122.65;87.32;;;;;;;12.17;94.70;97811.09;10371146;28;20029;-57
2022/11/06 18:38:15;;;;;;;120.68;85.30;;;;;;;12.19;94.57;97803.31;10371834;28;20488;-57
2022/11/06 18:43:14;;;;;;;120.10;83.13;;;;;;;12.18;94.92;97809.38;10371181;28;20069;-57
2022/11/06 18:48:13;;;;;;;116.97;78.63;;;;;;;12.17;94.97;97818.06;10368706;28;20085;-56
2022/11/06 18:53:14;;;;;;;108.68;76.30;;;;;;;12.18;95.04;97812.84;10379173;28;20060;-57
2022/11/06 18:58:13;;;;;;;113.45;78.13;;;;;;;12.18;94.93;97818.06;10378638;28;20060;-56
2022/11/06 19:03:12;;;;;;;112.28;75.28;;;;;;;12.18;95.15;97823.25;10378160;28;20061;-57
2022/11/06 19:08:11;;;;;;;117.28;81.95;;;;;;;12.21;94.75;97838.00;10378064;28;20067;-56
2022/11/06 19:13:11;;;;;;;115.03;81.28;;;;;;;12.22;94.56;97839.69;10378393;28;20067;-56
2022/11/06 19:18:11;;;;;;;114.53;80.53;;;;;;;12.17;94.77;97837.13;10377710;28;20071;-56
2022/11/06 19:23:13;;;;;;;142.05;95.00;;;;;;;12.11;95.08;97847.59;10378229;28;20061;-57
2022/11/06 19:28:12;;;;;;;151.95;102.28;;;;;;;12.10;95.10;97848.44;10378443;28;20059;-57
2022/11/06 19:33:11;;;;;;;138.00;93.50;;;;;;;12.06;95.20;97833.72;10377726;28;20033;-57
2022/11/06 19:38:09;;;;;;;135.10;96.93;;;;;;;12.07;95.30;97848.47;10377297;28;20067;-57
2022/11/06 19:43:08;;;;;;;135.32;91.95;;;;;;;12.03;95.34;97854.56;10377869;28;20028;-57
2022/11/06 19:48:07;;;;;;;139.32;94.43;;;;;;;12.01;94.95;97856.28;10376422;28;20036;-57
2022/11/06 19:53:06;;;;;;;136.07;95.88;;;;;;;11.96;95.23;97868.47;10391924;28;20035;-57
2022/11/06 19:58:05;;;;;;;137.07;92.38;;;;;;;11.92;94.80;97871.94;10376699;28;20025;-56
2022/11/06 20:03:04;;;;;;;133.30;89.72;;;;;;;11.81;94.77;97859.84;10375545;28;20040;-56
2022/11/06 20:08:04;;;;;;;;;;;;;;;11.75;95.00;97859.88;10373505;28;20069;-57
2022/11/06 20:13:03;;;;;;;120.07;77.73;;;;;;;11.60;94.57;97865.16;10376316;28;19947;-57
2022/11/06 20:18:02;;;;;;;115.25;72.72;;;;;;;11.45;94.44;97869.53;10390602;28;20605;-56
2022/11/06 20:23:01;;;;;;;119.15;71.65;;;;;;;11.33;95.25;97860.88;10375907;28;20083;-56
2022/11/06 20:28:00;;;;;;;142.13;94.90;;;;;;;11.00;96.57;97873.91;10375095;28;20494;-57
2022/11/06 20:32:59;;;;;;;159.68;98.32;;;;;;;10.76;97.99;97884.28;10375902;28;20028;-57
2022/11/06 20:37:58;;;;;;;164.98;100.70;;;;;;;10.59;97.84;97874.75;10372140;28;20515;-56
2022/11/06 20:42:57;;;;;;;250.38;111.72;;;;;;;10.52;98.51;97888.59;10375624;28;20043;-56
2022/11/06 20:47:56;;;;;;;250.82;126.35;;;;;;;10.33;99.63;97879.03;10375078;28;20136;-57
2022/11/06 20:52:55;;;;;;;222.68;126.30;;;;;;;10.29;100.00;97891.13;10374814;28;20135;-57
2022/11/06 20:57:54;;;;;;;;;;;;;;;10.26;100.00;97898.03;10375067;28;20088;-56
2022/11/06 21:02:53;;;;;;;248.57;106.95;;;;;;;10.17;100.00;97891.97;10373755;28;20429;-56
2022/11/06 21:07:52;;;;;;;194.38;101.78;;;;;;;10.19;100.00;97895.44;10373615;28;20451;-56
2022/11/06 21:12:51;;;;;;;175.13;98.78;;;;;;;10.26;100.00;97903.22;10371385;28;20029;-57
2022/11/06 21:17:50;;;;;;;193.15;99.85;;;;;;;10.37;100.00;97911.91;10372600;28;20075;-57
2022/11/06 21:22:49;;;;;;;195.10;95.57;;;;;;;10.46;100.00;97901.53;10374330;28;20024;-56
2022/11/06 21:27:48;;;;;;;167.02;88.00;;;;;;;10.53;100.00;97911.06;10373047;28;20024;-56
2022/11/06 21:32:47;;;;;;;596.88;125.15;;;;;;;10.61;100.00;97917.16;10372888;28;20029;-56
2022/11/06 21:37:46;;;;;;;373.90;111.63;;;;;;;10.71;100.00;97927.53;10373406;28;20583;-56
2022/11/06 21:42:45;;;;;;;289.08;120.47;;;;;;;10.66;100.00;97943.09;10373493;28;20021;-57
2022/11/06 21:47:44;;;;;;;284.65;118.88;;;;;;;10.67;100.00;97943.97;10374689;28;20025;-57
2022/11/06 21:58:01;;;;;;;282.92;120.45;;;;;;;10.74;100.00;97941.38;10373690;28;20075;-57
2022/11/06 22:03:00;;;;;;;226.80;115.55;;;;;;;10.77;100.00;97943.09;10373494;28;20065;-57
2022/11/06 22:07:59;;;;;;;270.95;99.38;;;;;;;10.82;100.00;97933.59;10373409;28;20083;-57
2022/11/06 22:12:58;;;;;;;225.25;102.85;;;;;;;10.79;100.00;97942.25;10373136;28;20466;-56
2022/11/06 22:17:57;;;;;;;624.55;120.75;;;;;;;10.85;100.00;97936.22;10372904;28;20033;-57
2022/11/06 22:22:56;;;;;;;281.65;88.80;;;;;;;10.86;100.00;97940.53;10372762;28;20076;-57
2022/11/06 22:27:55;;;;;;;211.45;86.80;;;;;;;10.76;100.00;97942.25;10372986;28;20017;-57
2022/11/06 22:32:54;;;;;;;181.52;83.70;;;;;;;10.85;100.00;97946.59;10372682;28;20037;-57
2022/11/06 22:37:53;;;;;;;204.57;76.75;;;;;;;10.87;100.00;97944.91;10372462;28;20033;-57
2022/11/06 22:42:52;;;;;;;151.65;68.13;;;;;;;10.87;100.00;97951.75;10372607;28;20047;-57
2022/11/06 22:47:50;;;;;;;210.38;74.95;;;;;;;10.84;100.00;97943.09;10372518;28;20027;-57
2022/11/06 22:52:50;;;;;;;181.05;70.47;;;;;;;10.47;100.00;97944.81;10372401;28;20043;-57
2022/11/06 22:57:49;;;;;;;152.45;70.28;;;;;;;10.37;100.00;97940.44;10371332;28;20535;-57
2022/11/06 23:02:48;;;;;;;116.35;57.17;;;;;;;10.44;100.00;97944.78;10372169;28;20492;-57
2022/11/06 23:07:47;;;;;;;;;;;;;;;10.47;100.00;97950.00;10371290;28;20061;-57
2022/11/06 23:12:46;;;;;;;101.63;58.53;;;;;;;10.40;100.00;97951.69;10368533;28;20003;-57